sensor_id;sensor_type;location;lat;lon;timestamp;P1;durP1;ratioP1;P2;durP2;ratioP2
36725;SDS011;44936;52.086;5.150;2023-07-20T00:02:14;2.35;;;1.20;;
36725;SDS011;44936;52.086;5.150;2023-07-20T00:04:39;1.45;;;1.00;;
36725;SDS011;44936;52.086;5.150;2023-07-20T00:07:05;1.48;;;0.95;;
36725;SDS011;44936;52.086;5.150;2023-07-20T00:09:30;1.10;;;1.00;;
36725;SDS011;44936;52.086;5.150;2023-07-20T00:11:56;3.17;;;1.00;;
36725;SDS011;44936;52.086;5.150;2023-07-20T00:14:21;1.10;;;1.00;;
36725;SDS011;44936;52.086;5.150;2023-07-20T00:16:47;1.27;;;0.85;;
36725;SDS011;44936;52.086;5.150;2023-07-20T00:19:21;2.05;;;1.10;;
36725;SDS011;44936;52.086;5.150;2023-07-20T00:21:50;1.45;;;1.25;;
36725;SDS011;44936;52.086;5.150;2023-07-20T00:24:15;1.40;;;0.70;;
36725;SDS011;44936;52.086;5.150;2023-07-20T00:26:41;1.17;;;0.80;;
36725;SDS011;44936;52.086;5.150;2023-07-20T00:29:06;0.93;;;0.85;;
36725;SDS011;44936;52.086;5.150;2023-07-20T00:31:31;2.60;;;1.00;;
36725;SDS011;44936;52.086;5.150;2023-07-20T00:33:57;1.23;;;1.00;;
36725;SDS011;44936;52.086;5.150;2023-07-20T00:36:22;1.33;;;0.95;;
36725;SDS011;44936;52.086;5.150;2023-07-20T00:38:47;1.52;;;0.90;;
36725;SDS011;44936;52.086;5.150;2023-07-20T00:41:13;1.50;;;0.75;;
36725;SDS011;44936;52.086;5.150;2023-07-20T00:43:38;1.42;;;0.90;;
36725;SDS011;44936;52.086;5.150;2023-07-20T00:46:03;1.13;;;0.85;;
36725;SDS011;44936;52.086;5.150;2023-07-20T00:48:30;0.68;;;0.68;;
36725;SDS011;44936;52.086;5.150;2023-07-20T00:50:57;2.05;;;1.05;;
36725;SDS011;44936;52.086;5.150;2023-07-20T00:53:23;1.20;;;0.70;;
36725;SDS011;44936;52.086;5.150;2023-07-20T00:55:49;1.42;;;0.63;;
36725;SDS011;44936;52.086;5.150;2023-07-20T00:58:14;0.85;;;0.60;;
36725;SDS011;44936;52.086;5.150;2023-07-20T01:00:40;1.58;;;0.50;;
36725;SDS011;44936;52.086;5.150;2023-07-20T01:03:05;0.93;;;0.75;;
36725;SDS011;44936;52.086;5.150;2023-07-20T01:11:13;0.40;;;0.32;;
36725;SDS011;44936;52.086;5.150;2023-07-20T01:13:46;0.63;;;0.50;;
36725;SDS011;44936;52.086;5.150;2023-07-20T01:16:12;1.13;;;0.50;;
36725;SDS011;44936;52.086;5.150;2023-07-20T01:18:37;0.40;;;0.40;;
36725;SDS011;44936;52.086;5.150;2023-07-20T01:21:06;0.50;;;0.50;;
36725;SDS011;44936;52.086;5.150;2023-07-20T01:24:23;0.98;;;0.73;;
36725;SDS011;44936;52.086;5.150;2023-07-20T01:32:18;0.77;;;0.73;;
36725;SDS011;44936;52.086;5.150;2023-07-20T01:34:45;0.43;;;0.43;;
36725;SDS011;44936;52.086;5.150;2023-07-20T01:37:12;0.55;;;0.55;;
36725;SDS011;44936;52.086;5.150;2023-07-20T01:39:39;0.70;;;0.60;;
36725;SDS011;44936;52.086;5.150;2023-07-20T01:42:05;0.30;;;0.30;;
36725;SDS011;44936;52.086;5.150;2023-07-20T01:44:31;0.30;;;0.30;;
36725;SDS011;44936;52.086;5.150;2023-07-20T01:46:57;0.47;;;0.40;;
36725;SDS011;44936;52.086;5.150;2023-07-20T01:49:22;0.40;;;0.40;;
36725;SDS011;44936;52.086;5.150;2023-07-20T01:51:47;0.63;;;0.52;;
36725;SDS011;44936;52.086;5.150;2023-07-20T01:54:12;0.90;;;0.70;;
36725;SDS011;44936;52.086;5.150;2023-07-20T01:56:38;0.40;;;0.40;;
36725;SDS011;44936;52.086;5.150;2023-07-20T01:59:03;0.55;;;0.40;;
36725;SDS011;44936;52.086;5.150;2023-07-20T02:01:28;0.77;;;0.50;;
36725;SDS011;44936;52.086;5.150;2023-07-20T02:03:54;0.50;;;0.50;;
36725;SDS011;44936;52.086;5.150;2023-07-20T02:06:19;0.30;;;0.25;;
36725;SDS011;44936;52.086;5.150;2023-07-20T02:08:45;0.60;;;0.40;;
36725;SDS011;44936;52.086;5.150;2023-07-20T02:11:10;0.50;;;0.50;;
36725;SDS011;44936;52.086;5.150;2023-07-20T02:13:36;0.55;;;0.43;;
36725;SDS011;44936;52.086;5.150;2023-07-20T02:16:01;1.13;;;0.70;;
36725;SDS011;44936;52.086;5.150;2023-07-20T02:18:26;0.77;;;0.47;;
36725;SDS011;44936;52.086;5.150;2023-07-20T02:20:52;0.50;;;0.50;;
36725;SDS011;44936;52.086;5.150;2023-07-20T02:23:19;1.05;;;0.50;;
36725;SDS011;44936;52.086;5.150;2023-07-20T02:25:44;0.88;;;0.57;;
36725;SDS011;44936;52.086;5.150;2023-07-20T02:28:11;1.27;;;0.85;;
36725;SDS011;44936;52.086;5.150;2023-07-20T02:30:38;0.52;;;0.40;;
36725;SDS011;44936;52.086;5.150;2023-07-20T02:33:04;0.43;;;0.40;;
36725;SDS011;44936;52.086;5.150;2023-07-20T02:35:31;0.90;;;0.73;;
36725;SDS011;44936;52.086;5.150;2023-07-20T02:37:56;1.08;;;0.50;;
36725;SDS011;44936;52.086;5.150;2023-07-20T02:40:22;0.55;;;0.55;;
36725;SDS011;44936;52.086;5.150;2023-07-20T02:42:48;0.98;;;0.70;;
36725;SDS011;44936;52.086;5.150;2023-07-20T02:45:13;0.60;;;0.60;;
36725;SDS011;44936;52.086;5.150;2023-07-20T02:47:39;2.08;;;0.60;;
36725;SDS011;44936;52.086;5.150;2023-07-20T02:50:06;0.60;;;0.45;;
36725;SDS011;44936;52.086;5.150;2023-07-20T02:52:32;2.15;;;0.73;;
36725;SDS011;44936;52.086;5.150;2023-07-20T02:54:58;0.90;;;0.68;;
36725;SDS011;44936;52.086;5.150;2023-07-20T02:57:23;0.93;;;0.82;;
36725;SDS011;44936;52.086;5.150;2023-07-20T02:59:48;0.65;;;0.65;;
36725;SDS011;44936;52.086;5.150;2023-07-20T03:02:13;1.10;;;0.70;;
36725;SDS011;44936;52.086;5.150;2023-07-20T03:04:39;1.02;;;0.73;;
36725;SDS011;44936;52.086;5.150;2023-07-20T03:07:04;1.45;;;0.70;;
36725;SDS011;44936;52.086;5.150;2023-07-20T03:09:30;0.73;;;0.57;;
36725;SDS011;44936;52.086;5.150;2023-07-20T03:11:55;1.15;;;0.73;;
36725;SDS011;44936;52.086;5.150;2023-07-20T03:14:21;0.77;;;0.43;;
36725;SDS011;44936;52.086;5.150;2023-07-20T03:16:46;2.30;;;0.90;;
36725;SDS011;44936;52.086;5.150;2023-07-20T03:19:11;0.65;;;0.65;;
36725;SDS011;44936;52.086;5.150;2023-07-20T03:21:37;2.90;;;0.75;;
36725;SDS011;44936;52.086;5.150;2023-07-20T03:24:06;0.75;;;0.70;;
36725;SDS011;44936;52.086;5.150;2023-07-20T03:26:32;2.72;;;0.90;;
36725;SDS011;44936;52.086;5.150;2023-07-20T03:28:57;1.23;;;0.90;;
36725;SDS011;44936;52.086;5.150;2023-07-20T03:31:23;1.40;;;0.77;;
36725;SDS011;44936;52.086;5.150;2023-07-20T03:33:48;2.28;;;0.95;;
36725;SDS011;44936;52.086;5.150;2023-07-20T03:36:13;1.17;;;0.73;;
36725;SDS011;44936;52.086;5.150;2023-07-20T03:38:38;3.63;;;0.77;;
36725;SDS011;44936;52.086;5.150;2023-07-20T03:41:04;2.10;;;1.10;;
36725;SDS011;44936;52.086;5.150;2023-07-20T03:43:29;1.63;;;1.00;;
36725;SDS011;44936;52.086;5.150;2023-07-20T03:45:55;1.42;;;1.08;;
36725;SDS011;44936;52.086;5.150;2023-07-20T03:48:22;1.63;;;1.00;;
36725;SDS011;44936;52.086;5.150;2023-07-20T03:50:50;2.17;;;1.20;;
36725;SDS011;44936;52.086;5.150;2023-07-20T03:53:17;3.20;;;1.15;;
36725;SDS011;44936;52.086;5.150;2023-07-20T03:55:44;2.97;;;1.35;;
36725;SDS011;44936;52.086;5.150;2023-07-20T03:58:13;1.55;;;1.08;;
36725;SDS011;44936;52.086;5.150;2023-07-20T04:00:39;1.55;;;0.80;;
36725;SDS011;44936;52.086;5.150;2023-07-20T04:03:05;1.73;;;1.00;;
36725;SDS011;44936;52.086;5.150;2023-07-20T04:05:30;2.55;;;1.50;;
36725;SDS011;44936;52.086;5.150;2023-07-20T04:07:56;1.75;;;1.17;;
36725;SDS011;44936;52.086;5.150;2023-07-20T04:10:21;3.53;;;0.98;;
36725;SDS011;44936;52.086;5.150;2023-07-20T04:12:46;2.63;;;1.33;;
36725;SDS011;44936;52.086;5.150;2023-07-20T04:15:12;1.50;;;1.00;;
36725;SDS011;44936;52.086;5.150;2023-07-20T04:17:38;1.88;;;1.20;;
36725;SDS011;44936;52.086;5.150;2023-07-20T04:20:05;2.50;;;1.05;;
36725;SDS011;44936;52.086;5.150;2023-07-20T04:22:31;1.48;;;1.00;;
36725;SDS011;44936;52.086;5.150;2023-07-20T04:24:56;1.20;;;1.10;;
36725;SDS011;44936;52.086;5.150;2023-07-20T04:27:22;2.10;;;1.10;;
36725;SDS011;44936;52.086;5.150;2023-07-20T04:29:47;2.35;;;1.30;;
36725;SDS011;44936;52.086;5.150;2023-07-20T04:32:12;4.50;;;1.58;;
36725;SDS011;44936;52.086;5.150;2023-07-20T04:34:38;2.55;;;1.58;;
36725;SDS011;44936;52.086;5.150;2023-07-20T04:37:04;3.25;;;1.60;;
36725;SDS011;44936;52.086;5.150;2023-07-20T04:39:29;4.07;;;1.42;;
36725;SDS011;44936;52.086;5.150;2023-07-20T04:41:55;2.03;;;1.35;;
36725;SDS011;44936;52.086;5.150;2023-07-20T04:44:21;1.38;;;1.23;;
36725;SDS011;44936;52.086;5.150;2023-07-20T04:46:46;3.75;;;1.45;;
36725;SDS011;44936;52.086;5.150;2023-07-20T04:49:11;2.80;;;1.30;;
36725;SDS011;44936;52.086;5.150;2023-07-20T04:51:38;1.90;;;1.40;;
36725;SDS011;44936;52.086;5.150;2023-07-20T04:54:03;3.58;;;1.38;;
36725;SDS011;44936;52.086;5.150;2023-07-20T04:56:29;4.72;;;1.50;;
36725;SDS011;44936;52.086;5.150;2023-07-20T04:58:54;3.35;;;1.63;;
36725;SDS011;44936;52.086;5.150;2023-07-20T05:01:19;4.05;;;1.48;;
36725;SDS011;44936;52.086;5.150;2023-07-20T05:03:45;3.08;;;1.42;;
36725;SDS011;44936;52.086;5.150;2023-07-20T05:06:10;2.97;;;1.67;;
36725;SDS011;44936;52.086;5.150;2023-07-20T05:08:37;5.13;;;2.10;;
36725;SDS011;44936;52.086;5.150;2023-07-20T05:11:02;1.98;;;1.23;;
36725;SDS011;44936;52.086;5.150;2023-07-20T05:13:27;2.13;;;1.25;;
36725;SDS011;44936;52.086;5.150;2023-07-20T05:15:53;2.22;;;1.10;;
36725;SDS011;44936;52.086;5.150;2023-07-20T05:18:19;1.77;;;1.13;;
36725;SDS011;44936;52.086;5.150;2023-07-20T05:20:48;1.38;;;1.05;;
36725;SDS011;44936;52.086;5.150;2023-07-20T05:23:14;4.18;;;1.20;;
36725;SDS011;44936;52.086;5.150;2023-07-20T05:25:41;1.73;;;1.10;;
36725;SDS011;44936;52.086;5.150;2023-07-20T05:28:06;0.90;;;0.80;;
36725;SDS011;44936;52.086;5.150;2023-07-20T05:30:31;1.95;;;1.13;;
36725;SDS011;44936;52.086;5.150;2023-07-20T05:32:57;1.17;;;0.80;;
36725;SDS011;44936;52.086;5.150;2023-07-20T05:35:22;1.25;;;0.80;;
36725;SDS011;44936;52.086;5.150;2023-07-20T05:37:48;0.70;;;0.70;;
36725;SDS011;44936;52.086;5.150;2023-07-20T05:40:14;0.80;;;0.80;;
36725;SDS011;44936;52.086;5.150;2023-07-20T05:42:43;1.17;;;0.63;;
36725;SDS011;44936;52.086;5.150;2023-07-20T05:45:09;1.23;;;0.80;;
36725;SDS011;44936;52.086;5.150;2023-07-20T05:47:34;1.00;;;0.80;;
36725;SDS011;44936;52.086;5.150;2023-07-20T05:50:00;0.70;;;0.60;;
36725;SDS011;44936;52.086;5.150;2023-07-20T05:52:25;0.98;;;0.50;;
36725;SDS011;44936;52.086;5.150;2023-07-20T05:54:50;2.55;;;0.70;;
36725;SDS011;44936;52.086;5.150;2023-07-20T05:57:16;0.65;;;0.65;;
36725;SDS011;44936;52.086;5.150;2023-07-20T05:59:41;0.40;;;0.40;;
36725;SDS011;44936;52.086;5.150;2023-07-20T06:02:09;1.42;;;0.60;;
36725;SDS011;44936;52.086;5.150;2023-07-20T06:04:35;0.47;;;0.47;;
36725;SDS011;44936;52.086;5.150;2023-07-20T06:07:00;0.47;;;0.45;;
36725;SDS011;44936;52.086;5.150;2023-07-20T06:09:26;1.33;;;0.50;;
36725;SDS011;44936;52.086;5.150;2023-07-20T06:11:52;0.43;;;0.20;;
36725;SDS011;44936;52.086;5.150;2023-07-20T06:14:17;0.55;;;0.30;;
36725;SDS011;44936;52.086;5.150;2023-07-20T06:16:43;0.65;;;0.65;;
36725;SDS011;44936;52.086;5.150;2023-07-20T06:19:08;2.35;;;0.50;;
36725;SDS011;44936;52.086;5.150;2023-07-20T06:21:36;0.63;;;0.43;;
36725;SDS011;44936;52.086;5.150;2023-07-20T06:24:01;0.88;;;0.52;;
36725;SDS011;44936;52.086;5.150;2023-07-20T06:26:26;0.82;;;0.50;;
36725;SDS011;44936;52.086;5.150;2023-07-20T06:28:53;0.55;;;0.40;;
36725;SDS011;44936;52.086;5.150;2023-07-20T06:31:19;0.98;;;0.75;;
36725;SDS011;44936;52.086;5.150;2023-07-20T06:33:44;1.20;;;0.32;;
36725;SDS011;44936;52.086;5.150;2023-07-20T06:36:09;0.75;;;0.50;;
36725;SDS011;44936;52.086;5.150;2023-07-20T06:38:35;0.57;;;0.50;;
36725;SDS011;44936;52.086;5.150;2023-07-20T06:41:00;0.98;;;0.50;;
36725;SDS011;44936;52.086;5.150;2023-07-20T06:43:25;0.30;;;0.30;;
36725;SDS011;44936;52.086;5.150;2023-07-20T06:45:51;2.13;;;0.45;;
36725;SDS011;44936;52.086;5.150;2023-07-20T06:48:18;0.40;;;0.40;;
36725;SDS011;44936;52.086;5.150;2023-07-20T06:50:44;0.20;;;0.20;;
36725;SDS011;44936;52.086;5.150;2023-07-20T06:53:09;2.72;;;0.20;;
36725;SDS011;44936;52.086;5.150;2023-07-20T06:55:34;0.30;;;0.30;;
36725;SDS011;44936;52.086;5.150;2023-07-20T06:57:59;1.02;;;0.30;;
36725;SDS011;44936;52.086;5.150;2023-07-20T07:00:25;0.98;;;0.30;;
36725;SDS011;44936;52.086;5.150;2023-07-20T07:02:50;0.55;;;0.40;;
36725;SDS011;44936;52.086;5.150;2023-07-20T07:05:16;0.65;;;0.47;;
36725;SDS011;44936;52.086;5.150;2023-07-20T07:07:41;0.25;;;0.20;;
36725;SDS011;44936;52.086;5.150;2023-07-20T07:10:07;1.13;;;0.30;;
36725;SDS011;44936;52.086;5.150;2023-07-20T07:12:33;0.13;;;0.10;;
36725;SDS011;44936;52.086;5.150;2023-07-20T07:14:59;0.20;;;0.20;;
36725;SDS011;44936;52.086;5.150;2023-07-20T07:17:25;0.68;;;0.35;;
36725;SDS011;44936;52.086;5.150;2023-07-20T07:19:51;0.85;;;0.20;;
36725;SDS011;44936;52.086;5.150;2023-07-20T07:22:19;0.30;;;0.20;;
36725;SDS011;44936;52.086;5.150;2023-07-20T07:24:45;0.63;;;0.38;;
36725;SDS011;44936;52.086;5.150;2023-07-20T07:27:10;0.28;;;0.28;;
36725;SDS011;44936;52.086;5.150;2023-07-20T07:29:36;0.82;;;0.20;;
36725;SDS011;44936;52.086;5.150;2023-07-20T07:32:01;0.20;;;0.20;;
36725;SDS011;44936;52.086;5.150;2023-07-20T07:34:27;0.38;;;0.20;;
36725;SDS011;44936;52.086;5.150;2023-07-20T07:36:52;1.48;;;0.30;;
36725;SDS011;44936;52.086;5.150;2023-07-20T07:39:18;0.20;;;0.20;;
36725;SDS011;44936;52.086;5.150;2023-07-20T07:41:43;0.20;;;0.20;;
36725;SDS011;44936;52.086;5.150;2023-07-20T07:44:09;0.40;;;0.38;;
36725;SDS011;44936;52.086;5.150;2023-07-20T07:46:34;0.25;;;0.25;;
36725;SDS011;44936;52.086;5.150;2023-07-20T07:48:59;0.30;;;0.30;;
36725;SDS011;44936;52.086;5.150;2023-07-20T07:51:25;0.13;;;0.10;;
36725;SDS011;44936;52.086;5.150;2023-07-20T07:53:52;1.95;;;0.22;;
36725;SDS011;44936;52.086;5.150;2023-07-20T07:56:17;0.40;;;0.30;;
36725;SDS011;44936;52.086;5.150;2023-07-20T07:58:47;0.20;;;0.20;;
36725;SDS011;44936;52.086;5.150;2023-07-20T08:01:13;0.38;;;0.35;;
36725;SDS011;44936;52.086;5.150;2023-07-20T08:03:38;0.77;;;0.20;;
36725;SDS011;44936;52.086;5.150;2023-07-20T08:06:03;2.20;;;0.40;;
36725;SDS011;44936;52.086;5.150;2023-07-20T08:08:29;0.32;;;0.25;;
36725;SDS011;44936;52.086;5.150;2023-07-20T08:10:55;0.30;;;0.30;;
36725;SDS011;44936;52.086;5.150;2023-07-20T08:13:20;0.30;;;0.30;;
36725;SDS011;44936;52.086;5.150;2023-07-20T08:15:48;1.77;;;0.32;;
36725;SDS011;44936;52.086;5.150;2023-07-20T08:18:15;0.32;;;0.20;;
36725;SDS011;44936;52.086;5.150;2023-07-20T08:20:43;0.30;;;0.30;;
36725;SDS011;44936;52.086;5.150;2023-07-20T08:23:09;0.88;;;0.17;;
36725;SDS011;44936;52.086;5.150;2023-07-20T08:25:36;0.30;;;0.30;;
36725;SDS011;44936;52.086;5.150;2023-07-20T08:28:02;0.20;;;0.20;;
36725;SDS011;44936;52.086;5.150;2023-07-20T08:30:37;0.10;;;0.10;;
36725;SDS011;44936;52.086;5.150;2023-07-20T08:33:12;0.25;;;0.25;;
36725;SDS011;44936;52.086;5.150;2023-07-20T08:35:39;0.30;;;0.30;;
36725;SDS011;44936;52.086;5.150;2023-07-20T08:38:04;0.20;;;0.20;;
36725;SDS011;44936;52.086;5.150;2023-07-20T08:40:33;0.20;;;0.20;;
36725;SDS011;44936;52.086;5.150;2023-07-20T08:43:03;0.22;;;0.22;;
36725;SDS011;44936;52.086;5.150;2023-07-20T08:45:29;0.20;;;0.20;;
36725;SDS011;44936;52.086;5.150;2023-07-20T08:47:58;0.20;;;0.20;;
36725;SDS011;44936;52.086;5.150;2023-07-20T08:50:25;0.20;;;0.20;;
36725;SDS011;44936;52.086;5.150;2023-07-20T08:52:52;0.10;;;0.10;;
36725;SDS011;44936;52.086;5.150;2023-07-20T08:55:19;0.35;;;0.25;;
36725;SDS011;44936;52.086;5.150;2023-07-20T08:57:47;1.10;;;0.40;;
36725;SDS011;44936;52.086;5.150;2023-07-20T09:00:15;0.82;;;0.10;;
36725;SDS011;44936;52.086;5.150;2023-07-20T09:02:42;0.50;;;0.30;;
36725;SDS011;44936;52.086;5.150;2023-07-20T09:05:10;0.10;;;0.10;;
36725;SDS011;44936;52.086;5.150;2023-07-20T09:07:35;0.45;;;0.25;;
36725;SDS011;44936;52.086;5.150;2023-07-20T09:10:01;2.10;;;0.20;;
36725;SDS011;44936;52.086;5.150;2023-07-20T09:12:31;0.20;;;0.20;;
36725;SDS011;44936;52.086;5.150;2023-07-20T09:15:00;0.45;;;0.40;;
36725;SDS011;44936;52.086;5.150;2023-07-20T09:17:26;0.47;;;0.20;;
36725;SDS011;44936;52.086;5.150;2023-07-20T09:19:51;0.40;;;0.20;;
36725;SDS011;44936;52.086;5.150;2023-07-20T09:22:16;3.88;;;0.30;;
36725;SDS011;44936;52.086;5.150;2023-07-20T09:24:42;0.30;;;0.20;;
36725;SDS011;44936;52.086;5.150;2023-07-20T09:27:08;0.20;;;0.20;;
36725;SDS011;44936;52.086;5.150;2023-07-20T09:29:42;0.22;;;0.22;;
36725;SDS011;44936;52.086;5.150;2023-07-20T09:32:12;0.32;;;0.20;;
36725;SDS011;44936;52.086;5.150;2023-07-20T09:34:48;0.80;;;0.17;;
36725;SDS011;44936;52.086;5.150;2023-07-20T09:37:19;0.25;;;0.20;;
36725;SDS011;44936;52.086;5.150;2023-07-20T09:39:46;0.43;;;0.28;;
36725;SDS011;44936;52.086;5.150;2023-07-20T09:42:11;0.40;;;0.40;;
36725;SDS011;44936;52.086;5.150;2023-07-20T09:44:38;0.28;;;0.22;;
36725;SDS011;44936;52.086;5.150;2023-07-20T09:47:04;0.80;;;0.40;;
36725;SDS011;44936;52.086;5.150;2023-07-20T09:49:30;0.20;;;0.20;;
36725;SDS011;44936;52.086;5.150;2023-07-20T09:51:55;0.40;;;0.30;;
36725;SDS011;44936;52.086;5.150;2023-07-20T09:54:23;0.10;;;0.10;;
36725;SDS011;44936;52.086;5.150;2023-07-20T09:56:50;0.10;;;0.10;;
36725;SDS011;44936;52.086;5.150;2023-07-20T09:59:17;0.10;;;0.10;;
36725;SDS011;44936;52.086;5.150;2023-07-20T10:01:43;0.20;;;0.20;;
36725;SDS011;44936;52.086;5.150;2023-07-20T10:04:10;1.40;;;0.22;;
36725;SDS011;44936;52.086;5.150;2023-07-20T10:06:42;0.43;;;0.13;;
36725;SDS011;44936;52.086;5.150;2023-07-20T10:09:08;0.10;;;0.10;;
36725;SDS011;44936;52.086;5.150;2023-07-20T10:11:37;0.40;;;0.17;;
36725;SDS011;44936;52.086;5.150;2023-07-20T10:14:08;0.30;;;0.20;;
36725;SDS011;44936;52.086;5.150;2023-07-20T10:16:36;0.47;;;0.30;;
36725;SDS011;44936;52.086;5.150;2023-07-20T10:19:38;0.38;;;0.30;;
36725;SDS011;44936;52.086;5.150;2023-07-20T10:22:17;0.20;;;0.17;;
36725;SDS011;44936;52.086;5.150;2023-07-20T10:24:45;2.63;;;0.43;;
36725;SDS011;44936;52.086;5.150;2023-07-20T10:27:13;0.40;;;0.17;;
36725;SDS011;44936;52.086;5.150;2023-07-20T10:29:39;1.45;;;0.28;;
36725;SDS011;44936;52.086;5.150;2023-07-20T10:32:06;0.20;;;0.20;;
36725;SDS011;44936;52.086;5.150;2023-07-20T10:34:33;0.10;;;0.10;;
36725;SDS011;44936;52.086;5.150;2023-07-20T10:36:58;0.22;;;0.20;;
36725;SDS011;44936;52.086;5.150;2023-07-20T10:39:24;1.65;;;0.30;;
36725;SDS011;44936;52.086;5.150;2023-07-20T10:41:59;0.22;;;0.20;;
36725;SDS011;44936;52.086;5.150;2023-07-20T10:44:36;1.73;;;0.40;;
36725;SDS011;44936;52.086;5.150;2023-07-20T10:47:03;0.30;;;0.30;;
36725;SDS011;44936;52.086;5.150;2023-07-20T10:49:57;0.15;;;0.10;;
36725;SDS011;44936;52.086;5.150;2023-07-20T10:52:23;0.52;;;0.30;;
36725;SDS011;44936;52.086;5.150;2023-07-20T10:54:48;0.57;;;0.20;;
36725;SDS011;44936;52.086;5.150;2023-07-20T10:57:21;0.10;;;0.10;;
36725;SDS011;44936;52.086;5.150;2023-07-20T11:00:08;1.63;;;0.28;;
36725;SDS011;44936;52.086;5.150;2023-07-20T11:02:43;0.25;;;0.20;;
36725;SDS011;44936;52.086;5.150;2023-07-20T11:07:58;0.10;;;0.10;;
36725;SDS011;44936;52.086;5.150;2023-07-20T11:10:23;0.30;;;0.28;;
36725;SDS011;44936;52.086;5.150;2023-07-20T11:13:34;0.38;;;0.20;;
36725;SDS011;44936;52.086;5.150;2023-07-20T11:15:45;0.40;;;0.20;;
36725;SDS011;44936;52.086;5.150;2023-07-20T11:18:12;0.30;;;0.30;;
36725;SDS011;44936;52.086;5.150;2023-07-20T11:20:38;0.80;;;0.20;;
36725;SDS011;44936;52.086;5.150;2023-07-20T11:23:03;0.22;;;0.20;;
36725;SDS011;44936;52.086;5.150;2023-07-20T11:25:38;2.92;;;0.30;;
36725;SDS011;44936;52.086;5.150;2023-07-20T11:28:08;0.30;;;0.30;;
36725;SDS011;44936;52.086;5.150;2023-07-20T11:30:35;0.32;;;0.20;;
36725;SDS011;44936;52.086;5.150;2023-07-20T11:33:01;0.90;;;0.30;;
36725;SDS011;44936;52.086;5.150;2023-07-20T11:35:27;0.40;;;0.40;;
36725;SDS011;44936;52.086;5.150;2023-07-20T11:37:52;0.22;;;0.20;;
36725;SDS011;44936;52.086;5.150;2023-07-20T11:40:18;0.30;;;0.25;;
36725;SDS011;44936;52.086;5.150;2023-07-20T11:42:43;0.80;;;0.50;;
36725;SDS011;44936;52.086;5.150;2023-07-20T11:45:10;0.47;;;0.35;;
36725;SDS011;44936;52.086;5.150;2023-07-20T11:47:39;0.70;;;0.40;;
36725;SDS011;44936;52.086;5.150;2023-07-20T11:50:07;0.22;;;0.22;;
36725;SDS011;44936;52.086;5.150;2023-07-20T11:52:32;1.45;;;0.20;;
36725;SDS011;44936;52.086;5.150;2023-07-20T11:54:58;0.20;;;0.20;;
36725;SDS011;44936;52.086;5.150;2023-07-20T11:57:24;0.55;;;0.30;;
36725;SDS011;44936;52.086;5.150;2023-07-20T11:59:53;0.13;;;0.13;;
36725;SDS011;44936;52.086;5.150;2023-07-20T12:02:22;0.10;;;0.10;;
36725;SDS011;44936;52.086;5.150;2023-07-20T12:04:50;0.47;;;0.30;;
36725;SDS011;44936;52.086;5.150;2023-07-20T12:07:17;1.85;;;0.20;;
36725;SDS011;44936;52.086;5.150;2023-07-20T12:09:43;0.38;;;0.30;;
36725;SDS011;44936;52.086;5.150;2023-07-20T12:12:09;0.60;;;0.30;;
36725;SDS011;44936;52.086;5.150;2023-07-20T12:14:38;0.60;;;0.40;;
36725;SDS011;44936;52.086;5.150;2023-07-20T12:17:03;1.00;;;0.63;;
36725;SDS011;44936;52.086;5.150;2023-07-20T12:19:29;0.65;;;0.38;;
36725;SDS011;44936;52.086;5.150;2023-07-20T12:21:57;1.02;;;0.30;;
36725;SDS011;44936;52.086;5.150;2023-07-20T12:24:24;1.55;;;0.40;;
36725;SDS011;44936;52.086;5.150;2023-07-20T12:26:55;0.17;;;0.10;;
36725;SDS011;44936;52.086;5.150;2023-07-20T12:29:21;0.63;;;0.32;;
36725;SDS011;44936;52.086;5.150;2023-07-20T12:31:47;0.30;;;0.30;;
36725;SDS011;44936;52.086;5.150;2023-07-20T12:34:12;0.52;;;0.30;;
36725;SDS011;44936;52.086;5.150;2023-07-20T12:36:37;2.00;;;0.45;;
36725;SDS011;44936;52.086;5.150;2023-07-20T12:39:03;1.08;;;0.30;;
36725;SDS011;44936;52.086;5.150;2023-07-20T12:41:29;0.43;;;0.30;;
36725;SDS011;44936;52.086;5.150;2023-07-20T12:43:55;0.20;;;0.20;;
36725;SDS011;44936;52.086;5.150;2023-07-20T12:46:22;1.30;;;0.40;;
36725;SDS011;44936;52.086;5.150;2023-07-20T12:48:48;0.30;;;0.30;;
36725;SDS011;44936;52.086;5.150;2023-07-20T12:51:14;0.15;;;0.15;;
36725;SDS011;44936;52.086;5.150;2023-07-20T12:53:39;1.13;;;0.35;;
36725;SDS011;44936;52.086;5.150;2023-07-20T12:56:05;0.55;;;0.35;;
36725;SDS011;44936;52.086;5.150;2023-07-20T12:58:30;0.77;;;0.30;;
36725;SDS011;44936;52.086;5.150;2023-07-20T13:00:56;3.25;;;0.50;;
36725;SDS011;44936;52.086;5.150;2023-07-20T13:03:21;0.40;;;0.40;;
36725;SDS011;44936;52.086;5.150;2023-07-20T13:05:47;0.30;;;0.30;;
36725;SDS011;44936;52.086;5.150;2023-07-20T13:08:13;1.50;;;0.30;;
36725;SDS011;44936;52.086;5.150;2023-07-20T13:10:38;0.88;;;0.30;;
36725;SDS011;44936;52.086;5.150;2023-07-20T13:13:04;0.82;;;0.50;;
36725;SDS011;44936;52.086;5.150;2023-07-20T13:15:31;1.02;;;0.65;;
36725;SDS011;44936;52.086;5.150;2023-07-20T13:17:57;0.73;;;0.40;;
36725;SDS011;44936;52.086;5.150;2023-07-20T13:20:23;0.55;;;0.45;;
36725;SDS011;44936;52.086;5.150;2023-07-20T13:22:49;0.55;;;0.50;;
36725;SDS011;44936;52.086;5.150;2023-07-20T13:25:14;1.98;;;0.50;;
36725;SDS011;44936;52.086;5.150;2023-07-20T13:27:39;0.32;;;0.30;;
36725;SDS011;44936;52.086;5.150;2023-07-20T13:30:05;1.38;;;0.50;;
36725;SDS011;44936;52.086;5.150;2023-07-20T13:32:32;0.73;;;0.40;;
36725;SDS011;44936;52.086;5.150;2023-07-20T13:34:58;1.48;;;0.65;;
36725;SDS011;44936;52.086;5.150;2023-07-20T13:37:24;0.50;;;0.20;;
36725;SDS011;44936;52.086;5.150;2023-07-20T13:39:49;0.28;;;0.28;;
36725;SDS011;44936;52.086;5.150;2023-07-20T13:42:14;2.45;;;0.30;;
36725;SDS011;44936;52.086;5.150;2023-07-20T13:44:40;1.35;;;0.65;;
36725;SDS011;44936;52.086;5.150;2023-07-20T13:47:06;0.30;;;0.30;;
36725;SDS011;44936;52.086;5.150;2023-07-20T13:49:31;0.43;;;0.40;;
36725;SDS011;44936;52.086;5.150;2023-07-20T13:51:57;0.38;;;0.35;;
36725;SDS011;44936;52.086;5.150;2023-07-20T13:54:23;0.30;;;0.30;;
36725;SDS011;44936;52.086;5.150;2023-07-20T13:56:49;0.35;;;0.35;;
36725;SDS011;44936;52.086;5.150;2023-07-20T13:59:15;0.38;;;0.38;;
36725;SDS011;44936;52.086;5.150;2023-07-20T14:01:40;0.30;;;0.30;;
36725;SDS011;44936;52.086;5.150;2023-07-20T14:04:06;0.40;;;0.30;;
36725;SDS011;44936;52.086;5.150;2023-07-20T14:06:32;0.85;;;0.43;;
36725;SDS011;44936;52.086;5.150;2023-07-20T14:08:58;0.98;;;0.30;;
36725;SDS011;44936;52.086;5.150;2023-07-20T14:11:24;1.02;;;0.40;;
36725;SDS011;44936;52.086;5.150;2023-07-20T14:13:50;0.40;;;0.40;;
36725;SDS011;44936;52.086;5.150;2023-07-20T14:16:16;1.08;;;0.30;;
36725;SDS011;44936;52.086;5.150;2023-07-20T14:18:42;1.13;;;0.30;;
36725;SDS011;44936;52.086;5.150;2023-07-20T14:21:07;0.20;;;0.20;;
36725;SDS011;44936;52.086;5.150;2023-07-20T14:23:33;0.20;;;0.20;;
36725;SDS011;44936;52.086;5.150;2023-07-20T14:25:58;0.25;;;0.20;;
36725;SDS011;44936;52.086;5.150;2023-07-20T14:28:24;0.82;;;0.30;;
36725;SDS011;44936;52.086;5.150;2023-07-20T14:30:49;3.67;;;0.98;;
36725;SDS011;44936;52.086;5.150;2023-07-20T14:33:15;0.85;;;0.30;;
36725;SDS011;44936;52.086;5.150;2023-07-20T14:35:40;0.40;;;0.38;;
36725;SDS011;44936;52.086;5.150;2023-07-20T14:38:05;0.20;;;0.20;;
36725;SDS011;44936;52.086;5.150;2023-07-20T14:40:31;0.20;;;0.20;;
36725;SDS011;44936;52.086;5.150;2023-07-20T14:42:56;0.20;;;0.20;;
36725;SDS011;44936;52.086;5.150;2023-07-20T14:45:21;0.85;;;0.30;;
36725;SDS011;44936;52.086;5.150;2023-07-20T14:47:47;1.85;;;0.20;;
36725;SDS011;44936;52.086;5.150;2023-07-20T14:50:18;0.25;;;0.25;;
36725;SDS011;44936;52.086;5.150;2023-07-20T14:52:44;0.52;;;0.32;;
36725;SDS011;44936;52.086;5.150;2023-07-20T14:55:10;0.25;;;0.20;;
36725;SDS011;44936;52.086;5.150;2023-07-20T14:57:36;0.43;;;0.43;;
36725;SDS011;44936;52.086;5.150;2023-07-20T15:00:01;0.30;;;0.30;;